createdAt,value
2022-12-04T00:01:08.059Z,4.47
2022-12-04T00:03:35.966Z,4.44
2022-12-04T00:06:10.063Z,4.41
2022-12-04T00:08:38.066Z,4.37
2022-12-04T00:11:06.071Z,4.32
2022-12-04T00:13:34.068Z,4.31
2022-12-04T00:16:01.681Z,4.30
2022-12-04T00:18:29.244Z,4.29
2022-12-04T00:20:56.488Z,4.24
2022-12-04T00:23:23.974Z,4.27
2022-12-04T00:25:53.542Z,4.27
2022-12-04T00:28:20.982Z,4.26
2022-12-04T00:30:48.501Z,4.20
2022-12-04T00:33:16.082Z,4.21
2022-12-04T00:35:43.342Z,4.20
2022-12-04T00:38:11.085Z,4.14
2022-12-04T00:40:38.644Z,4.05
2022-12-04T00:43:06.176Z,4.01
2022-12-04T00:45:33.246Z,3.97
2022-12-04T00:48:00.647Z,3.93
2022-12-04T00:50:27.857Z,3.88
2022-12-04T00:52:56.405Z,3.87
2022-12-04T00:55:24.692Z,3.80
2022-12-04T00:57:59.584Z,3.77
2022-12-04T01:00:27.557Z,3.77
2022-12-04T01:02:55.337Z,3.78
2022-12-04T01:05:22.897Z,3.71
2022-12-04T01:07:50.336Z,3.72
2022-12-04T01:10:17.999Z,3.74
2022-12-04T01:12:45.273Z,3.71
2022-12-04T01:15:12.562Z,3.72
2022-12-04T01:17:40.276Z,3.76
2022-12-04T01:20:07.665Z,3.80
2022-12-04T01:22:35.277Z,3.81
2022-12-04T01:25:03.006Z,3.86
2022-12-04T01:27:30.375Z,3.88
2022-12-04T01:29:58.122Z,3.90
2022-12-04T01:32:25.395Z,3.94
2022-12-04T01:34:52.672Z,3.92
2022-12-04T01:37:20.014Z,3.95
2022-12-04T01:39:47.574Z,3.94
2022-12-04T01:42:15.838Z,4.00
2022-12-04T01:45:04.779Z,4.05
2022-12-04T01:47:32.298Z,4.11
2022-12-04T01:50:00.307Z,4.20
2022-12-04T01:52:27.931Z,4.22
2022-12-04T01:54:59.019Z,4.22
2022-12-04T01:57:28.930Z,4.29
2022-12-04T02:00:08.378Z,4.33
2022-12-04T02:02:39.078Z,4.34
2022-12-04T02:05:08.937Z,4.40
2022-12-04T02:07:37.360Z,4.40
2022-12-04T02:10:06.936Z,4.41
2022-12-04T02:12:49.149Z,4.44
2022-12-04T02:15:43.817Z,4.36
2022-12-04T02:18:23.904Z,4.29
2022-12-04T02:21:00.003Z,4.24
2022-12-04T02:23:42.312Z,4.10
2022-12-04T02:26:28.310Z,3.97
2022-12-04T02:29:21.949Z,3.91
2022-12-04T02:31:49.380Z,3.85
2022-12-04T02:34:36.598Z,3.71
2022-12-04T02:37:09.641Z,3.62
2022-12-04T02:40:20.419Z,3.58
2022-12-04T02:43:14.417Z,3.55
2022-12-04T02:45:47.071Z,3.54
2022-12-04T02:48:17.420Z,3.53
2022-12-04T02:50:46.419Z,3.53
2022-12-04T02:53:26.420Z,3.57
2022-12-04T02:55:57.873Z,3.59
2022-12-04T02:58:42.422Z,3.64
2022-12-04T03:01:21.091Z,3.71
2022-12-04T03:03:52.839Z,3.71
2022-12-04T03:06:20.611Z,3.62
2022-12-04T03:08:51.974Z,3.55
2022-12-04T03:11:19.428Z,3.51
2022-12-04T03:13:51.978Z,3.44
2022-12-04T03:16:32.028Z,3.36
2022-12-04T03:19:24.981Z,3.25
2022-12-04T03:21:55.340Z,3.22
2022-12-04T03:24:35.622Z,3.20
2022-12-04T03:27:19.446Z,3.13
2022-12-04T03:29:53.575Z,3.14
2022-12-04T03:32:39.435Z,3.13
2022-12-04T03:35:31.348Z,3.13
2022-12-04T03:38:12.625Z,3.08
2022-12-04T03:40:48.993Z,3.10
2022-12-04T03:43:29.631Z,3.11
2022-12-04T03:46:04.535Z,3.17
2022-12-04T03:49:08.631Z,3.18
2022-12-04T03:51:44.601Z,3.12
2022-12-04T03:54:19.462Z,3.09
2022-12-04T03:56:54.839Z,3.08
2022-12-04T03:59:34.441Z,3.03
2022-12-04T04:02:02.517Z,3.05
2022-12-04T04:04:34.468Z,3.08
2022-12-04T04:07:35.117Z,3.08
2022-12-04T04:10:08.474Z,3.12
2022-12-04T04:12:40.447Z,3.11
2022-12-04T04:15:33.551Z,3.13
2022-12-04T04:18:20.476Z,3.12
2022-12-04T04:21:12.018Z,3.07
2022-12-04T04:24:01.603Z,2.94
2022-12-04T04:26:34.485Z,3.00
2022-12-04T04:29:02.483Z,2.96
2022-12-04T04:31:33.094Z,3.00
2022-12-04T04:34:09.480Z,2.96
2022-12-04T04:36:52.029Z,2.96
2022-12-04T04:39:45.489Z,2.96
2022-12-04T04:42:18.654Z,2.96
2022-12-04T04:45:03.491Z,3.05
2022-12-04T04:47:40.256Z,3.08
2022-12-04T04:50:10.594Z,3.12
2022-12-04T04:52:40.282Z,3.14
2022-12-04T04:55:08.461Z,3.14
2022-12-04T04:57:36.830Z,3.13
2022-12-04T05:00:11.725Z,3.21
2022-12-04T05:02:39.448Z,3.24
2022-12-04T05:05:07.461Z,3.18
2022-12-04T05:07:35.102Z,3.21
2022-12-04T05:10:02.499Z,3.28
2022-12-04T05:12:29.668Z,3.33
2022-12-04T05:14:57.051Z,3.41
2022-12-04T05:17:24.401Z,3.46
2022-12-04T05:19:55.605Z,3.52
2022-12-04T05:22:28.061Z,3.57
2022-12-04T05:24:55.672Z,3.60
2022-12-04T05:27:24.074Z,3.63
2022-12-04T05:29:55.764Z,3.67
2022-12-04T05:32:24.519Z,3.66
2022-12-04T05:34:53.064Z,3.65
2022-12-04T05:37:20.569Z,3.68
2022-12-04T05:39:48.801Z,3.72
2022-12-04T05:42:16.526Z,3.74
2022-12-04T05:44:44.418Z,3.74
2022-12-04T05:47:11.978Z,3.72
2022-12-04T05:49:39.533Z,3.67
2022-12-04T05:52:07.419Z,3.62
2022-12-04T05:54:35.075Z,3.63
2022-12-04T05:57:02.536Z,3.61
2022-12-04T05:59:29.585Z,3.54
2022-12-04T06:01:57.044Z,3.51
2022-12-04T06:04:24.539Z,3.45
2022-12-04T06:06:53.542Z,3.38
2022-12-04T06:09:21.518Z,3.37
2022-12-04T06:11:49.084Z,3.33
2022-12-04T06:14:16.544Z,3.31
2022-12-04T06:16:45.902Z,3.33
2022-12-04T06:19:18.553Z,3.40
2022-12-04T06:21:48.436Z,3.41
2022-12-04T06:24:21.092Z,3.41
2022-12-04T06:27:25.123Z,3.42
2022-12-04T06:29:37.222Z,3.45
2022-12-04T06:32:05.175Z,3.45
2022-12-04T06:34:33.070Z,3.45
2022-12-04T06:37:00.587Z,3.42
2022-12-04T06:39:28.096Z,3.42
2022-12-04T06:41:55.535Z,3.41
2022-12-04T06:44:23.102Z,3.39
2022-12-04T06:46:50.580Z,3.34
2022-12-04T06:49:19.566Z,3.28
2022-12-04T06:51:47.104Z,3.30
2022-12-04T06:54:14.569Z,3.34
2022-12-04T06:56:42.342Z,3.44
2022-12-04T06:59:10.613Z,3.49
2022-12-04T07:01:38.111Z,3.57
2022-12-04T07:04:05.614Z,3.67
2022-12-04T07:06:37.458Z,3.75
2022-12-04T07:09:12.582Z,3.79
2022-12-04T07:11:40.623Z,3.85
2022-12-04T07:14:08.116Z,3.87
2022-12-04T07:16:40.723Z,3.92
2022-12-04T07:19:10.721Z,3.98
2022-12-04T07:21:41.636Z,4.09
2022-12-04T07:24:14.428Z,4.13
2022-12-04T07:26:41.724Z,4.31
2022-12-04T07:29:10.386Z,4.42
2022-12-04T07:31:38.549Z,4.56
2022-12-04T07:34:06.368Z,4.75
2022-12-04T07:36:33.730Z,4.97
2022-12-04T07:39:01.475Z,5.33
2022-12-04T07:41:29.129Z,5.57
2022-12-04T07:43:56.597Z,5.75
2022-12-04T07:46:26.623Z,5.97
2022-12-04T07:48:58.608Z,6.21
2022-12-04T07:51:28.395Z,6.40
2022-12-04T07:54:02.656Z,6.52
2022-12-04T07:56:30.604Z,6.64
2022-12-04T07:58:59.640Z,6.79
2022-12-04T08:01:27.554Z,6.85
2022-12-04T08:03:57.877Z,6.89
2022-12-04T08:06:27.226Z,7.03
2022-12-04T08:08:54.879Z,7.16
2022-12-04T08:11:24.620Z,7.05
2022-12-04T08:14:00.493Z,6.98
2022-12-04T08:16:29.713Z,6.83
2022-12-04T08:18:58.568Z,6.69
2022-12-04T08:21:28.840Z,6.65
2022-12-04T08:23:58.622Z,6.59
2022-12-04T08:26:27.626Z,6.63
2022-12-04T08:28:55.626Z,6.72
2022-12-04T08:31:26.734Z,6.70
2022-12-04T08:33:56.154Z,6.80
2022-12-04T08:36:23.849Z,7.03
2022-12-04T08:38:51.505Z,7.21
2022-12-04T08:41:21.548Z,7.48
2022-12-04T08:43:49.635Z,7.54
2022-12-04T08:46:18.706Z,7.71
2022-12-04T08:48:46.641Z,7.63
2022-12-04T08:51:19.638Z,7.72
2022-12-04T08:53:47.425Z,7.59
2022-12-04T08:56:14.991Z,7.63
2022-12-04T08:58:42.643Z,7.68
2022-12-04T09:01:12.774Z,7.60
2022-12-04T09:03:40.866Z,7.69
2022-12-04T09:06:09.768Z,7.65
2022-12-04T09:08:37.346Z,7.68
2022-12-04T09:11:11.651Z,7.56
2022-12-04T09:13:39.653Z,7.48
2022-12-04T09:16:10.850Z,7.56
2022-12-04T09:18:39.176Z,7.53
2022-12-04T09:21:08.821Z,7.48
2022-12-04T09:23:37.219Z,7.48
2022-12-04T09:26:04.884Z,7.73
2022-12-04T09:28:32.663Z,7.85
2022-12-04T09:31:02.257Z,7.85
2022-12-04T09:33:30.885Z,8.04
2022-12-04T09:36:02.536Z,8.02
2022-12-04T09:38:30.783Z,8.12
2022-12-04T09:41:35.891Z,8.18
2022-12-04T09:44:06.188Z,8.16
2022-12-04T09:46:37.652Z,8.36
2022-12-04T09:49:20.894Z,8.47
2022-12-04T09:51:48.786Z,8.77
2022-12-04T09:54:19.320Z,8.98
2022-12-04T09:57:04.800Z,9.02
2022-12-04T09:59:33.197Z,9.25
2022-12-04T10:02:10.224Z,9.36
2022-12-04T10:04:37.642Z,8.97
2022-12-04T10:07:18.794Z,9.12
2022-12-04T10:09:49.686Z,9.42
2022-12-04T10:12:56.210Z,9.39
2022-12-04T10:15:28.813Z,9.69
2022-12-04T10:18:28.801Z,10.00
2022-12-04T10:21:28.728Z,9.93
2022-12-04T10:24:05.024Z,10.19
2022-12-04T10:26:37.211Z,10.41
2022-12-04T10:29:08.815Z,10.27
2022-12-04T10:31:37.792Z,10.21
2022-12-04T10:34:16.186Z,10.39
2022-12-04T10:36:47.492Z,10.74
2022-12-04T10:39:25.828Z,10.91
2022-12-04T10:42:01.824Z,10.79
2022-12-04T10:44:29.811Z,10.82
2022-12-04T10:47:02.072Z,10.78
2022-12-04T10:49:31.814Z,11.01
2022-12-04T10:51:59.573Z,10.88
2022-12-04T10:54:36.717Z,11.28
2022-12-04T10:57:07.817Z,11.37
2022-12-04T10:59:35.716Z,11.56
2022-12-04T11:02:12.640Z,11.81
2022-12-04T11:04:42.509Z,11.73
2022-12-04T11:07:19.512Z,11.70
2022-12-04T11:10:06.939Z,11.43
2022-12-04T11:12:35.233Z,11.26
2022-12-04T11:15:13.518Z,11.43
2022-12-04T11:17:41.522Z,11.48
2022-12-04T11:20:17.377Z,11.57
2022-12-04T11:22:51.521Z,11.82
2022-12-04T11:25:20.238Z,11.85
2022-12-04T11:27:49.831Z,12.05
2022-12-04T11:30:30.527Z,12.27
2022-12-04T11:32:58.833Z,12.43
2022-12-04T11:35:28.244Z,12.49
2022-12-04T11:37:56.738Z,12.40
2022-12-04T11:40:25.853Z,12.13
2022-12-04T11:43:03.741Z,12.13
2022-12-04T11:45:31.743Z,12.36
2022-12-04T11:48:02.745Z,12.40
2022-12-04T11:50:42.077Z,12.12
2022-12-04T11:53:15.544Z,12.17
2022-12-04T11:55:45.740Z,12.12
2022-12-04T11:58:45.844Z,11.93
2022-12-04T12:01:21.464Z,12.11
2022-12-04T12:04:00.845Z,12.31
2022-12-04T12:06:31.550Z,12.12
2022-12-04T12:09:16.821Z,12.16
2022-12-04T12:11:56.264Z,11.99
2022-12-04T12:14:34.125Z,11.66
2022-12-04T12:17:24.460Z,11.70
2022-12-04T12:20:16.781Z,11.69
2022-12-04T12:22:57.524Z,11.71
2022-12-04T12:25:51.898Z,11.69
2022-12-04T12:28:35.270Z,11.58
2022-12-04T12:31:17.897Z,11.69
2022-12-04T12:34:11.986Z,11.60
2022-12-04T12:36:47.983Z,11.44
2022-12-04T12:39:20.775Z,11.27
2022-12-04T12:41:57.277Z,11.08
2022-12-04T12:44:35.865Z,10.95
2022-12-04T12:47:10.509Z,10.79
2022-12-04T12:49:53.928Z,10.69
2022-12-04T12:52:53.998Z,10.29
2022-12-04T12:55:27.960Z,10.22
2022-12-04T12:58:13.953Z,10.11
2022-12-04T13:00:50.325Z,9.89
2022-12-04T13:03:36.792Z,9.75
2022-12-04T13:06:07.794Z,9.80
2022-12-04T13:08:46.371Z,9.71
2022-12-04T13:11:21.292Z,9.95
2022-12-04T13:13:55.596Z,10.12
2022-12-04T13:16:42.842Z,10.44
2022-12-04T13:19:16.295Z,10.65
2022-12-04T13:21:57.604Z,10.46
2022-12-04T13:24:28.806Z,10.29
2022-12-04T13:27:02.607Z,9.88
2022-12-04T13:29:36.021Z,9.94
2022-12-04T13:32:09.161Z,10.06
2022-12-04T13:34:45.811Z,9.84
2022-12-04T13:37:28.953Z,9.46
2022-12-04T13:40:19.815Z,9.17
2022-12-04T13:42:47.617Z,8.98
2022-12-04T13:45:29.382Z,8.92
2022-12-04T13:48:02.319Z,8.79
2022-12-04T13:50:32.823Z,8.67
2022-12-04T13:53:01.177Z,8.52
2022-12-04T13:55:38.826Z,8.40
2022-12-04T13:58:12.193Z,8.40
2022-12-04T14:00:42.903Z,8.37
2022-12-04T14:03:30.830Z,8.32
2022-12-04T14:06:00.637Z,8.27
2022-12-04T14:08:30.057Z,8.25
2022-12-04T14:11:04.397Z,8.23
2022-12-04T14:13:42.176Z,8.21
2022-12-04T14:16:19.685Z,8.23
2022-12-04T14:18:48.646Z,8.18
2022-12-04T14:21:16.050Z,8.09
2022-12-04T14:23:44.177Z,8.03
2022-12-04T14:26:20.845Z,7.91
2022-12-04T14:28:50.649Z,7.93
2022-12-04T14:31:17.862Z,7.88
2022-12-04T14:33:59.199Z,7.93
2022-12-04T14:36:29.059Z,7.91
2022-12-04T14:39:13.011Z,7.91
2022-12-04T14:41:41.341Z,7.92
2022-12-04T14:44:22.735Z,7.90
2022-12-04T14:46:52.354Z,7.86
2022-12-04T14:49:32.739Z,7.85
2022-12-04T14:52:14.424Z,7.82
2022-12-04T14:55:13.343Z,7.80
2022-12-04T14:58:25.661Z,7.74
2022-12-04T15:00:54.667Z,7.70
2022-12-04T15:03:22.815Z,7.66
2022-12-04T15:05:51.665Z,7.65
2022-12-04T15:08:21.395Z,7.68
2022-12-04T15:11:09.351Z,7.66
2022-12-04T15:13:38.875Z,7.54
2022-12-04T15:16:23.111Z,7.50
2022-12-04T15:18:59.086Z,7.53
2022-12-04T15:21:40.672Z,7.48
2022-12-04T15:24:23.763Z,7.54
2022-12-04T15:26:53.088Z,7.56
2022-12-04T15:29:27.766Z,7.49
2022-12-04T15:31:57.361Z,7.53
2022-12-04T15:34:33.898Z,7.43
2022-12-04T15:37:14.739Z,7.45
2022-12-04T15:39:42.894Z,7.50
2022-12-04T15:42:20.779Z,7.48
2022-12-04T15:45:01.446Z,7.50
2022-12-04T15:47:31.784Z,7.53
2022-12-04T15:50:21.904Z,7.51
2022-12-04T15:53:15.681Z,7.44
2022-12-04T15:55:51.904Z,7.39
2022-12-04T15:58:31.722Z,7.34
2022-12-04T16:01:06.958Z,7.29
2022-12-04T16:03:43.735Z,7.27
2022-12-04T16:06:18.912Z,7.21
2022-12-04T16:08:49.112Z,7.25
2022-12-04T16:11:22.688Z,7.22
2022-12-04T16:14:02.915Z,7.17
2022-12-04T16:16:30.683Z,7.13
2022-12-04T16:18:58.994Z,7.13
2022-12-04T16:21:30.388Z,7.19
2022-12-04T16:24:05.052Z,7.11
2022-12-04T16:26:32.806Z,7.12
2022-12-04T16:29:00.694Z,7.12
2022-12-04T16:31:28.421Z,7.12
2022-12-04T16:33:55.862Z,7.06
2022-12-04T16:36:23.340Z,7.11
2022-12-04T16:38:51.931Z,7.15
2022-12-04T16:41:20.316Z,7.15
2022-12-04T16:43:54.699Z,7.11
2022-12-04T16:46:24.009Z,7.11
2022-12-04T16:48:51.919Z,7.12
2022-12-04T16:51:24.068Z,7.07
2022-12-04T16:53:52.696Z,7.06
2022-12-04T16:56:21.144Z,7.10
2022-12-04T16:58:48.881Z,7.00
2022-12-04T17:01:22.992Z,7.04
2022-12-04T17:03:50.853Z,7.03
2022-12-04T17:06:18.801Z,7.07
2022-12-04T17:08:46.710Z,7.05
2022-12-04T17:11:15.625Z,7.05
2022-12-04T17:13:43.314Z,7.03
2022-12-04T17:16:14.665Z,7.02
2022-12-04T17:18:43.899Z,7.03
2022-12-04T17:21:13.919Z,7.02
2022-12-04T17:23:41.964Z,7.03
2022-12-04T17:26:12.531Z,7.01
2022-12-04T17:28:40.531Z,6.95
2022-12-04T17:31:16.844Z,6.99
2022-12-04T17:33:44.967Z,7.01
2022-12-04T17:36:14.969Z,7.02
2022-12-04T17:38:42.831Z,7.02
2022-12-04T17:41:14.180Z,6.99
2022-12-04T17:43:42.975Z,7.00
2022-12-04T17:46:12.602Z,6.98
2022-12-04T17:48:40.429Z,6.99
2022-12-04T17:51:10.981Z,6.92
2022-12-04T17:53:39.174Z,6.92
2022-12-04T17:56:08.984Z,6.93
2022-12-04T17:58:36.985Z,6.87
2022-12-04T18:01:13.892Z,6.85
2022-12-04T18:03:43.660Z,6.87
2022-12-04T18:06:24.992Z,6.87
2022-12-04T18:08:53.188Z,6.90
2022-12-04T18:11:23.666Z,6.88
2022-12-04T18:13:57.821Z,6.84
2022-12-04T18:16:26.529Z,6.79
2022-12-04T18:18:55.824Z,6.80
2022-12-04T18:21:23.734Z,6.75
2022-12-04T18:23:51.889Z,6.72
2022-12-04T18:26:24.889Z,6.77
2022-12-04T18:28:53.695Z,6.77
2022-12-04T18:31:21.645Z,6.69
2022-12-04T18:33:49.737Z,6.63
2022-12-04T18:36:20.005Z,6.64
2022-12-04T18:38:48.579Z,6.58
2022-12-04T18:41:16.204Z,6.63
2022-12-04T18:43:44.824Z,6.59
2022-12-04T18:46:15.067Z,6.60
2022-12-04T18:48:44.016Z,6.57
2022-12-04T18:51:20.835Z,6.56
2022-12-04T18:53:49.022Z,6.56
2022-12-04T18:56:17.021Z,6.53
2022-12-04T18:58:47.029Z,6.52
2022-12-04T19:01:21.317Z,6.53
2022-12-04T19:03:49.026Z,6.50
2022-12-04T19:06:16.858Z,6.42
2022-12-04T19:08:44.919Z,6.42
2022-12-04T19:11:15.407Z,6.43
2022-12-04T19:13:43.232Z,6.43
2022-12-04T19:16:15.113Z,6.42
2022-12-04T19:18:45.755Z,6.41
2022-12-04T19:21:15.232Z,6.40
2022-12-04T19:23:43.929Z,6.37
2022-12-04T19:26:11.854Z,6.43
2022-12-04T19:28:39.422Z,6.45
2022-12-04T19:31:15.124Z,6.50
2022-12-04T19:33:43.045Z,6.49
2022-12-04T19:36:11.937Z,6.51
2022-12-04T19:38:40.330Z,6.48
2022-12-04T19:41:09.867Z,6.46
2022-12-04T19:43:39.050Z,6.45
2022-12-04T19:46:11.109Z,6.46
2022-12-04T19:48:38.948Z,6.44
2022-12-04T19:51:12.559Z,6.42
2022-12-04T19:53:41.282Z,6.38
2022-12-04T19:56:16.054Z,6.38
2022-12-04T19:58:43.957Z,6.39
2022-12-04T20:01:14.651Z,6.33
2022-12-04T20:03:42.616Z,6.34
2022-12-04T20:06:15.639Z,6.34
2022-12-04T20:08:43.258Z,6.37
2022-12-04T20:11:13.061Z,6.39
2022-12-04T20:13:41.647Z,6.36
2022-12-04T20:16:11.518Z,6.40
2022-12-04T20:18:40.259Z,6.39
2022-12-04T20:21:11.499Z,6.39
2022-12-04T20:23:49.894Z,6.37
2022-12-04T20:26:20.653Z,6.34
2022-12-04T20:28:48.509Z,6.30
2022-12-04T20:31:22.109Z,6.28
2022-12-04T20:33:51.658Z,6.24
2022-12-04T20:36:20.159Z,6.20
2022-12-04T20:38:48.074Z,6.24
2022-12-04T20:41:16.761Z,6.27
2022-12-04T20:43:45.080Z,6.25
2022-12-04T20:46:18.153Z,6.26
2022-12-04T20:48:49.518Z,6.23
2022-12-04T20:51:18.975Z,6.28
2022-12-04T20:53:47.909Z,6.28
2022-12-04T20:56:15.559Z,6.30
2022-12-04T20:58:43.996Z,6.22
2022-12-04T21:01:13.942Z,6.18
2022-12-04T21:03:42.194Z,6.21
2022-12-04T21:06:15.084Z,6.17
2022-12-04T21:08:58.174Z,6.15
2022-12-04T21:11:33.792Z,6.18
2022-12-04T21:14:21.243Z,6.17
2022-12-04T21:16:49.535Z,6.17
2022-12-04T21:19:19.442Z,6.11
2022-12-04T21:21:47.118Z,6.11
2022-12-04T21:24:18.014Z,6.11
2022-12-04T21:26:45.798Z,6.11
2022-12-04T21:29:13.800Z,6.07
2022-12-04T21:31:41.733Z,6.10
2022-12-04T21:34:11.800Z,5.97
2022-12-04T21:36:39.102Z,5.97
2022-12-04T21:39:08.099Z,5.95
2022-12-04T21:41:54.703Z,5.95
2022-12-04T21:44:22.707Z,5.98
2022-12-04T21:46:50.848Z,5.89
2022-12-04T21:49:19.314Z,5.88
2022-12-04T21:52:02.590Z,5.85
2022-12-04T21:54:30.548Z,5.86
2022-12-04T21:56:58.954Z,5.82
2022-12-04T21:59:27.039Z,5.75
2022-12-04T22:01:55.361Z,5.75
2022-12-04T22:04:23.326Z,5.78
2022-12-04T22:06:51.036Z,5.79
2022-12-04T22:09:18.696Z,5.78
2022-12-04T22:11:46.327Z,5.73
2022-12-04T22:14:14.329Z,5.70
2022-12-04T22:16:43.035Z,5.68
2022-12-04T22:19:13.331Z,5.64
2022-12-04T22:21:41.158Z,5.60
2022-12-04T22:24:10.959Z,5.64
2022-12-04T22:26:39.054Z,5.64
2022-12-04T22:29:41.608Z,5.66
2022-12-04T22:31:56.156Z,5.62
2022-12-04T22:34:23.827Z,5.63
2022-12-04T22:36:51.279Z,5.59
2022-12-04T22:39:18.747Z,5.56
2022-12-04T22:41:46.572Z,5.52
2022-12-04T22:44:14.069Z,5.49
2022-12-04T22:46:41.852Z,5.47
2022-12-04T22:49:09.271Z,5.51
2022-12-04T22:51:37.350Z,5.44
2022-12-04T22:54:06.976Z,5.46
2022-12-04T22:56:34.754Z,5.46
2022-12-04T22:59:02.355Z,5.49
2022-12-04T23:01:32.076Z,5.47
2022-12-04T23:04:00.359Z,5.45
2022-12-04T23:06:30.188Z,5.48
2022-12-04T23:09:04.082Z,5.44
2022-12-04T23:11:32.189Z,5.46
2022-12-04T23:14:02.091Z,5.46
2022-12-04T23:16:31.421Z,5.42
2022-12-04T23:18:59.366Z,5.42
2022-12-04T23:21:28.196Z,5.46
2022-12-04T23:23:56.263Z,5.46
2022-12-04T23:26:26.685Z,5.44
2022-12-04T23:28:55.378Z,5.41
2022-12-04T23:31:23.466Z,5.30
2022-12-04T23:33:51.178Z,5.32
2022-12-04T23:36:18.872Z,5.35
2022-12-04T23:38:46.387Z,5.28
2022-12-04T23:41:22.105Z,5.32
2022-12-04T23:43:50.787Z,5.28
2022-12-04T23:46:21.286Z,5.27
2022-12-04T23:48:48.980Z,5.27
2022-12-04T23:51:19.112Z,5.28
2022-12-04T23:53:47.115Z,5.24
2022-12-04T23:56:20.389Z,5.22
2022-12-04T23:58:49.315Z,5.19
